Wetterdaten: Woche 14.06.04 - 20.06.04 (KW25)
Datum Zeit Temperatur Luftfeuchte Luftdruck Regenmenge Wind Richtung Taupunkt Windchill
14.06.2004 00:00 12.1 C 100 % 1028.8 hPa 0.0 l/m 0.0 km/h (0 Bft) N 12.1 C 12.1 C
14.06.2004 01:00 11.6 C 100 % 1028.9 hPa 0.0 l/m 0.0 km/h (0 Bft) N 11.6 C 11.6 C
14.06.2004 02:00 10.9 C 100 % 1028.0 hPa 0.0 l/m 0.1 km/h (0 Bft) O-SO 10.9 C 10.9 C
14.06.2004 03:00 10.2 C 100 % 1028.0 hPa 0.0 l/m 0.1 km/h (0 Bft) N 10.2 C 10.2 C
14.06.2004 04:00 10.2 C 100 % 1028.0 hPa 0.0 l/m 0.0 km/h (0 Bft) N 10.2 C 10.2 C
14.06.2004 05:00 10.6 C 100 % 1028.0 hPa 0.0 l/m 0.2 km/h (0 Bft) NO 10.6 C 10.6 C
14.06.2004 06:00 10.6 C 100 % 1028.0 hPa 0.0 l/m 0.0 km/h (0 Bft) N 10.6 C 10.6 C
14.06.2004 07:00 11.5 C 100 % 1027.8 hPa 0.0 l/m 0.2 km/h (0 Bft) NO 11.5 C 11.5 C
14.06.2004 08:00 13.1 C 100 % 1027.6 hPa 0.0 l/m 2.0 km/h (1 Bft) NO 13.0 C 13.1 C
14.06.2004 09:00 14.3 C 94 % 1027.4 hPa 0.0 l/m 4.2 km/h (1 Bft) O-SO 13.4 C 14.3 C
14.06.2004 10:00 16.2 C 80 % 1027.2 hPa 0.0 l/m 12.6 km/h (3 Bft) O-SO 12.8 C 16.2 C
14.06.2004 11:00 18.2 C 63 % 1026.8 hPa 0.0 l/m 15.0 km/h (3 Bft) O 11.0 C 18.2 C
14.06.2004 12:00 19.5 C 54 % 1025.9 hPa 0.0 l/m 18.9 km/h (3 Bft) O-SO 9.8 C 19.5 C
14.06.2004 13:00 21.5 C 46 % 1025.5 hPa 0.0 l/m 23.8 km/h (4 Bft) O-SO 9.5 C 21.5 C
14.06.2004 14:00 21.5 C 45 % 1025.3 hPa 0.0 l/m 13.9 km/h (3 Bft) O-SO 9.0 C 21.5 C
14.06.2004 15:00 22.6 C 41 % 1024.3 hPa 0.0 l/m 12.6 km/h (3 Bft) O 8.7 C 22.6 C
14.06.2004 16:00 23.8 C 37 % 1024.0 hPa 0.0 l/m 14.3 km/h (3 Bft) O 8.2 C 23.8 C
14.06.2004 17:00 24.0 C 37 % 1023.1 hPa 0.0 l/m 10.2 km/h (2 Bft) O-SO 8.4 C 24.0 C
14.06.2004 18:00 23.3 C 40 % 1023.2 hPa 0.0 l/m 10.3 km/h (2 Bft) O-NO 8.8 C 23.3 C
14.06.2004 19:00 22.9 C 41 % 1023.2 hPa 0.0 l/m 8.4 km/h (2 Bft) NO 9.0 C 22.9 C
14.06.2004 20:00 21.1 C 44 % 1023.4 hPa 0.0 l/m 1.7 km/h (1 Bft) NO 8.5 C 21.1 C
14.06.2004 21:00 18.8 C 49 % 1023.7 hPa 0.0 l/m 0.2 km/h (0 Bft) NO 8.0 C 18.8 C
14.06.2004 22:00 17.4 C 53 % 1023.9 hPa 0.0 l/m 0.2 km/h (0 Bft) N-NO 7.6 C 17.4 C
14.06.2004 23:00 16.0 C 60 % 1024.1 hPa 0.0 l/m 0.2 km/h (0 Bft) N 8.2 C 16.0 C
15.06.2004 00:00 13.5 C 76 % 1024.4 hPa 0.0 l/m 0.0 km/h (0 Bft) N 9.3 C 13.5 C
15.06.2004 01:00 12.0 C 83 % 1024.6 hPa 0.0 l/m 0.5 km/h (0 Bft) O 9.1 C 12.0 C
15.06.2004 02:00 11.3 C 87 % 1023.8 hPa 0.0 l/m 0.2 km/h (0 Bft) O 9.2 C 11.3 C
15.06.2004 03:00 10.8 C 90 % 1023.8 hPa 0.0 l/m 0.3 km/h (0 Bft) O 9.2 C 10.8 C
15.06.2004 04:00 10.3 C 93 % 1023.1 hPa 0.0 l/m 0.9 km/h (0 Bft) O 9.3 C 10.2 C
15.06.2004 05:00 10.0 C 95 % 1023.2 hPa 0.0 l/m 0.0 km/h (0 Bft) N 9.3 C 10.0 C
15.06.2004 06:00 10.8 C 97 % 1023.4 hPa 0.0 l/m 0.0 km/h (0 Bft) N 10.2 C 10.8 C
15.06.2004 07:00 12.5 C 91 % 1022.5 hPa 0.0 l/m 0.1 km/h (0 Bft) N 11.1 C 12.5 C
15.06.2004 08:00 14.1 C 81 % 1022.3 hPa 0.0 l/m 0.2 km/h (0 Bft) W-NW 10.9 C 14.1 C
15.06.2004 09:00 15.7 C 70 % 1022.1 hPa 0.0 l/m 0.2 km/h (0 Bft) W-NW 10.2 C 15.7 C
15.06.2004 10:00 17.5 C 63 % 1021.8 hPa 0.0 l/m 0.5 km/h (0 Bft) W-NW 10.2 C 17.5 C
15.06.2004 11:00 18.8 C 61 % 1021.3 hPa 0.0 l/m 0.7 km/h (0 Bft) NW 11.1 C 18.8 C
15.06.2004 12:00 20.0 C 57 % 1020.5 hPa 0.0 l/m 0.2 km/h (0 Bft) N 11.1 C 20.0 C
15.06.2004 13:00 20.4 C 56 % 1019.8 hPa 0.0 l/m 1.6 km/h (1 Bft) W-NW 11.4 C 20.4 C
15.06.2004 14:00 20.4 C 55 % 1019.4 hPa 0.0 l/m 0.1 km/h (0 Bft) W-NW 11.0 C 20.4 C
15.06.2004 15:00 20.4 C 53 % 1018.9 hPa 0.0 l/m 0.8 km/h (0 Bft) NW 10.4 C 20.4 C
15.06.2004 16:00 19.7 C 59 % 1018.4 hPa 0.0 l/m 2.6 km/h (1 Bft) NW 11.4 C 19.7 C
15.06.2004 17:00 20.0 C 61 % 1018.1 hPa 0.0 l/m 2.0 km/h (1 Bft) W-NW 12.1 C 20.0 C
15.06.2004 18:00 19.7 C 58 % 1017.4 hPa 0.0 l/m 0.8 km/h (0 Bft) O-SO 11.2 C 19.7 C
15.06.2004 19:00 19.4 C 58 % 1017.7 hPa 0.0 l/m 0.6 km/h (0 Bft) NO 10.9 C 19.4 C
15.06.2004 20:00 18.4 C 63 % 1017.7 hPa 0.0 l/m 0.0 km/h (0 Bft) N 11.1 C 18.4 C
15.06.2004 21:00 17.2 C 68 % 1017.7 hPa 0.0 l/m 0.0 km/h (0 Bft) N 11.1 C 17.2 C
15.06.2004 22:00 15.9 C 78 % 1018.5 hPa 0.0 l/m 0.0 km/h (0 Bft) N 12.0 C 15.9 C
15.06.2004 23:00 15.4 C 83 % 1018.0 hPa 0.0 l/m 1.8 km/h (1 Bft) O-SO 12.5 C 15.4 C
16.06.2004 00:00 15.8 C 81 % 1017.9 hPa 0.0 l/m 4.0 km/h (1 Bft) SO 12.5 C 15.8 C
16.06.2004 01:00 15.4 C 83 % 1018.0 hPa 0.0 l/m 1.9 km/h (1 Bft) O-SO 12.6 C 15.4 C
16.06.2004 02:00 15.3 C 87 % 1017.2 hPa 0.0 l/m 0.0 km/h (0 Bft) N 13.2 C 15.3 C
16.06.2004 03:00 14.8 C 88 % 1017.0 hPa 0.0 l/m 0.0 km/h (0 Bft) N 12.9 C 14.8 C
16.06.2004 04:00 14.7 C 89 % 1017.0 hPa 0.0 l/m 0.0 km/h (0 Bft) N 12.8 C 14.7 C
16.06.2004 05:00 14.3 C 91 % 1017.1 hPa 0.0 l/m 0.0 km/h (0 Bft) N 12.9 C 14.3 C
16.06.2004 06:00 14.5 C 94 % 1017.0 hPa 0.0 l/m 0.0 km/h (0 Bft) N 13.5 C 14.5 C
16.06.2004 07:00 15.1 C 92 % 1017.0 hPa 0.0 l/m 0.0 km/h (0 Bft) N 13.7 C 15.1 C
16.06.2004 08:00 15.4 C 89 % 1017.7 hPa 0.0 l/m 0.0 km/h (0 Bft) N 13.5 C 15.4 C
16.06.2004 09:00 15.3 C 92 % 1018.0 hPa 2.2 l/m 0.1 km/h (0 Bft) O-NO 14.0 C 15.3 C
16.06.2004 10:00 14.9 C 98 % 1018.6 hPa 2.8 l/m 0.4 km/h (0 Bft) O-SO 14.6 C 14.9 C
16.06.2004 11:00 14.8 C 99 % 1019.1 hPa 1.9 l/m 0.0 km/h (0 Bft) N 14.7 C 14.8 C
16.06.2004 12:00 15.9 C 99 % 1018.9 hPa 0.3 l/m 1.4 km/h (1 Bft) O-SO 15.7 C 15.9 C
16.06.2004 13:00 15.8 C 99 % 1018.9 hPa 0.0 l/m 4.7 km/h (1 Bft) O-SO 15.5 C 15.8 C
16.06.2004 14:00 16.3 C 97 % 1018.9 hPa 0.0 l/m 0.2 km/h (0 Bft) SO 15.8 C 16.3 C
16.06.2004 15:00 16.6 C 93 % 1018.8 hPa 0.0 l/m 0.0 km/h (0 Bft) N 15.4 C 16.6 C
16.06.2004 16:00 18.2 C 82 % 1017.6 hPa 0.0 l/m 0.1 km/h (0 Bft) N 15.1 C 18.2 C
16.06.2004 17:00 20.0 C 72 % 1017.4 hPa 0.0 l/m 1.5 km/h (1 Bft) O-SO 14.7 C 20.0 C
16.06.2004 18:00 19.3 C 76 % 1017.4 hPa 0.0 l/m 3.4 km/h (1 Bft) SO 15.0 C 19.3 C
16.06.2004 19:00 19.9 C 74 % 1017.4 hPa 0.0 l/m 3.5 km/h (1 Bft) O-SO 15.1 C 19.9 C
16.06.2004 20:00 19.0 C 78 % 1017.5 hPa 0.0 l/m 2.3 km/h (1 Bft) O-SO 15.1 C 19.0 C
16.06.2004 21:00 15.7 C 86 % 1017.9 hPa 0.0 l/m 2.8 km/h (1 Bft) O-SO 13.4 C 15.7 C
16.06.2004 22:00 14.0 C 94 % 1019.1 hPa 0.0 l/m 0.1 km/h (0 Bft) N 13.1 C 14.0 C
16.06.2004 23:00 12.9 C 98 % 1019.3 hPa 0.0 l/m 0.0 km/h (0 Bft) N 12.6 C 12.9 C
17.06.2004 00:00 11.9 C 99 % 1019.5 hPa 0.0 l/m 0.0 km/h (0 Bft) N 11.7 C 11.9 C
17.06.2004 01:00 11.0 C 100 % 1019.6 hPa 0.0 l/m 0.0 km/h (0 Bft) N 11.0 C 11.0 C
17.06.2004 02:00 10.0 C 100 % 1019.5 hPa 0.0 l/m 0.0 km/h (0 Bft) N 9.9 C 10.0 C
17.06.2004 03:00 9.3 C 100 % 1018.8 hPa 0.0 l/m 1.8 km/h (1 Bft) O-SO 9.3 C 9.2 C
17.06.2004 04:00 8.9 C 100 % 1018.8 hPa 0.0 l/m 0.2 km/h (0 Bft) N 8.9 C 8.9 C
17.06.2004 05:00 8.3 C 100 % 1018.9 hPa 0.0 l/m 0.3 km/h (0 Bft) O-SO 8.3 C 8.3 C
17.06.2004 06:00 8.9 C 100 % 1018.9 hPa 0.0 l/m 0.0 km/h (0 Bft) N 8.9 C 8.9 C
17.06.2004 07:00 9.9 C 100 % 1018.7 hPa 0.0 l/m 0.0 km/h (0 Bft) N 9.8 C 9.9 C
17.06.2004 08:00 11.8 C 92 % 1018.2 hPa 0.0 l/m 0.2 km/h (0 Bft) O-SO 10.5 C 11.8 C
17.06.2004 09:00 13.6 C 85 % 1017.6 hPa 0.0 l/m 0.1 km/h (0 Bft) O-SO 11.1 C 13.6 C
17.06.2004 10:00 15.4 C 81 % 1016.8 hPa 0.0 l/m 4.1 km/h (1 Bft) O-SO 12.3 C 15.4 C
17.06.2004 11:00 18.3 C 73 % 1015.5 hPa 0.0 l/m 8.6 km/h (2 Bft) O-SO 13.3 C 18.3 C
17.06.2004 12:00 20.7 C 57 % 1014.8 hPa 0.0 l/m 10.5 km/h (2 Bft) NW 11.7 C 20.7 C
17.06.2004 13:00 22.2 C 42 % 1014.0 hPa 0.0 l/m 19.0 km/h (3 Bft) NW 8.5 C 22.2 C
17.06.2004 14:00 23.5 C 35 % 1013.6 hPa 0.0 l/m 22.8 km/h (4 Bft) NW 7.3 C 23.5 C
17.06.2004 15:00 24.9 C 33 % 1012.6 hPa 0.0 l/m 18.8 km/h (3 Bft) NW 7.6 C 24.9 C
17.06.2004 16:00 25.7 C 31 % 1012.0 hPa 0.0 l/m 21.1 km/h (4 Bft) NW 7.4 C 25.7 C
17.06.2004 17:00 25.7 C 32 % 1011.4 hPa 0.0 l/m 21.8 km/h (4 Bft) NW 7.8 C 25.7 C
17.06.2004 18:00 25.2 C 36 % 1011.5 hPa 0.0 l/m 24.0 km/h (4 Bft) NW 9.0 C 25.2 C
17.06.2004 19:00 24.3 C 42 % 1011.6 hPa 0.0 l/m 20.8 km/h (4 Bft) NW 10.4 C 24.3 C
17.06.2004 20:00 22.9 C 49 % 1010.8 hPa 0.0 l/m 12.5 km/h (3 Bft) NW 11.5 C 22.9 C
17.06.2004 21:00 20.5 C 56 % 1011.1 hPa 0.0 l/m 5.3 km/h (1 Bft) NW 11.5 C 20.5 C
17.06.2004 22:00 17.9 C 64 % 1012.3 hPa 0.0 l/m 0.9 km/h (0 Bft) S-SW 10.9 C 17.9 C
17.06.2004 23:00 15.4 C 75 % 1012.4 hPa 0.0 l/m 3.2 km/h (1 Bft) SO 10.9 C 15.4 C
18.06.2004 00:00 14.3 C 81 % 1011.9 hPa 0.0 l/m 0.6 km/h (0 Bft) O-SO 11.1 C 14.3 C
18.06.2004 01:00 13.6 C 85 % 1012.0 hPa 0.0 l/m 0.3 km/h (0 Bft) O-SO 11.2 C 13.6 C
18.06.2004 02:00 13.3 C 88 % 1011.1 hPa 0.0 l/m 0.1 km/h (0 Bft) O-SO 11.5 C 13.3 C
18.06.2004 03:00 13.7 C 91 % 1010.9 hPa 0.0 l/m 1.8 km/h (1 Bft) O-SO 12.2 C 13.7 C
18.06.2004 04:00 13.3 C 93 % 1010.9 hPa 0.0 l/m 0.0 km/h (0 Bft) N 12.2 C 13.3 C
18.06.2004 05:00 12.7 C 95 % 1010.0 hPa 0.0 l/m 0.0 km/h (0 Bft) N 11.8 C 12.7 C
18.06.2004 06:00 13.9 C 95 % 1009.8 hPa 0.0 l/m 0.0 km/h (0 Bft) N 13.1 C 13.9 C
18.06.2004 07:00 15.4 C 89 % 1009.6 hPa 0.0 l/m 0.0 km/h (0 Bft) N 13.7 C 15.4 C
18.06.2004 08:00 16.9 C 75 % 1009.5 hPa 0.0 l/m 3.8 km/h (1 Bft) NW 12.4 C 16.9 C
18.06.2004 09:00 17.6 C 64 % 1009.4 hPa 0.0 l/m 14.1 km/h (3 Bft) NW 10.7 C 17.6 C
18.06.2004 10:00 18.2 C 63 % 1008.5 hPa 0.0 l/m 16.9 km/h (3 Bft) NW 11.0 C 18.2 C
18.06.2004 11:00 19.8 C 58 % 1008.0 hPa 0.0 l/m 22.1 km/h (4 Bft) NW 11.2 C 19.8 C
18.06.2004 12:00 21.3 C 51 % 1007.8 hPa 0.0 l/m 32.1 km/h (5 Bft) NW 10.9 C 21.3 C
18.06.2004 13:00 21.4 C 49 % 1007.8 hPa 0.0 l/m 41.5 km/h (6 Bft) NW 10.3 C 21.4 C
18.06.2004 14:00 21.5 C 47 % 1007.8 hPa 0.0 l/m 47.5 km/h (6 Bft) W-NW 9.7 C 21.5 C
18.06.2004 15:00 22.3 C 44 % 1007.1 hPa 0.0 l/m 34.6 km/h (5 Bft) NW 9.5 C 22.3 C
18.06.2004 16:00 22.8 C 40 % 1006.6 hPa 0.0 l/m 31.7 km/h (5 Bft) NW 8.3 C 22.8 C
18.06.2004 17:00 23.6 C 37 % 1006.5 hPa 0.0 l/m 22.6 km/h (4 Bft) NW 7.9 C 23.6 C
18.06.2004 18:00 23.2 C 38 % 1006.6 hPa 0.0 l/m 29.5 km/h (5 Bft) NW 8.2 C 23.2 C
18.06.2004 19:00 21.7 C 43 % 1006.8 hPa 0.0 l/m 23.6 km/h (4 Bft) NW 8.5 C 21.7 C
18.06.2004 20:00 21.1 C 50 % 1006.8 hPa 0.0 l/m 8.7 km/h (2 Bft) NW 10.1 C 21.1 C
18.06.2004 21:00 19.0 C 53 % 1007.6 hPa 0.0 l/m 12.8 km/h (3 Bft) NW 9.2 C 19.0 C
18.06.2004 22:00 17.9 C 61 % 1008.3 hPa 0.0 l/m 10.4 km/h (2 Bft) NW 10.1 C 17.9 C
18.06.2004 23:00 15.2 C 74 % 1008.6 hPa 0.0 l/m 2.5 km/h (1 Bft) NO 10.5 C 15.2 C
19.06.2004 00:00 13.7 C 79 % 1008.8 hPa 0.0 l/m 4.4 km/h (1 Bft) O-SO 10.2 C 13.7 C
19.06.2004 01:00 12.9 C 86 % 1008.0 hPa 0.0 l/m 4.7 km/h (1 Bft) O-SO 10.5 C 12.9 C
19.06.2004 02:00 12.3 C 87 % 1008.0 hPa 0.0 l/m 0.3 km/h (0 Bft) O-SO 10.1 C 12.3 C
19.06.2004 03:00 12.0 C 88 % 1008.0 hPa 0.0 l/m 2.2 km/h (1 Bft) O-SO 10.1 C 12.0 C
19.06.2004 04:00 11.8 C 86 % 1008.1 hPa 0.0 l/m 2.3 km/h (1 Bft) O-SO 9.6 C 11.8 C
19.06.2004 05:00 11.5 C 86 % 1007.9 hPa 0.0 l/m 3.8 km/h (1 Bft) O-SO 9.2 C 11.5 C
19.06.2004 06:00 12.5 C 83 % 1008.0 hPa 0.0 l/m 1.9 km/h (1 Bft) O-SO 9.6 C 12.5 C
19.06.2004 07:00 14.4 C 73 % 1007.7 hPa 0.0 l/m 0.4 km/h (0 Bft) NW 9.7 C 14.4 C
19.06.2004 08:00 15.4 C 66 % 1007.6 hPa 0.0 l/m 2.5 km/h (1 Bft) NW 9.0 C 15.4 C
19.06.2004 09:00 15.7 C 63 % 1007.5 hPa 0.0 l/m 6.1 km/h (2 Bft) NW 8.7 C 15.7 C
19.06.2004 10:00 16.5 C 61 % 1007.4 hPa 0.0 l/m 8.0 km/h (2 Bft) NW 9.0 C 16.5 C
19.06.2004 11:00 17.8 C 57 % 1007.3 hPa 0.0 l/m 14.0 km/h (3 Bft) NW 9.0 C 17.8 C
19.06.2004 12:00 19.5 C 49 % 1006.3 hPa 0.0 l/m 11.8 km/h (2 Bft) NW 8.6 C 19.5 C
19.06.2004 13:00 20.1 C 46 % 1005.9 hPa 0.0 l/m 17.7 km/h (3 Bft) NW 8.1 C 20.1 C
19.06.2004 14:00 19.6 C 47 % 1006.0 hPa 0.0 l/m 17.9 km/h (3 Bft) NW 8.0 C 19.6 C
19.06.2004 15:00 19.3 C 46 % 1006.0 hPa 0.0 l/m 24.1 km/h (4 Bft) NW 7.5 C 19.3 C
19.06.2004 16:00 19.4 C 45 % 1006.0 hPa 0.0 l/m 26.6 km/h (4 Bft) NW 7.0 C 19.4 C
19.06.2004 17:00 18.2 C 46 % 1006.2 hPa 0.0 l/m 21.0 km/h (4 Bft) NW 6.2 C 18.2 C
19.06.2004 18:00 17.2 C 52 % 1006.4 hPa 0.0 l/m 18.1 km/h (3 Bft) NW 7.2 C 17.2 C
19.06.2004 19:00 16.1 C 56 % 1007.5 hPa 0.0 l/m 14.4 km/h (3 Bft) NW 7.3 C 16.1 C
19.06.2004 20:00 15.4 C 62 % 1007.6 hPa 0.0 l/m 5.5 km/h (1 Bft) W-NW 8.1 C 15.4 C
19.06.2004 21:00 14.6 C 65 % 1008.3 hPa 0.0 l/m 1.1 km/h (1 Bft) N-NW 7.9 C 14.6 C
19.06.2004 22:00 14.0 C 64 % 1008.6 hPa 0.0 l/m 0.9 km/h (0 Bft) W 7.3 C 14.0 C
19.06.2004 23:00 13.3 C 78 % 1008.9 hPa 0.0 l/m 2.5 km/h (1 Bft) O-SO 9.6 C 13.3 C
20.06.2004 00:00 13.0 C 86 % 1008.9 hPa 0.0 l/m 0.6 km/h (0 Bft) SO 10.7 C 13.0 C
20.06.2004 01:00 12.6 C 85 % 1009.0 hPa 0.3 l/m 0.0 km/h (0 Bft) N 10.2 C 12.6 C
20.06.2004 02:00 12.1 C 90 % 1009.1 hPa 0.6 l/m 0.9 km/h (0 Bft) NO 10.5 C 12.1 C
20.06.2004 03:00 11.8 C 96 % 1009.1 hPa 0.0 l/m 0.0 km/h (0 Bft) N 11.2 C 11.8 C
20.06.2004 04:00 11.6 C 98 % 1008.5 hPa 0.0 l/m 1.6 km/h (1 Bft) O-SO 11.3 C 11.6 C
20.06.2004 05:00 11.6 C 99 % 1009.0 hPa 0.0 l/m 0.2 km/h (0 Bft) N 11.4 C 11.6 C
20.06.2004 06:00 11.7 C 99 % 1008.4 hPa 0.0 l/m 1.0 km/h (0 Bft) O-SO 11.5 C 11.7 C
20.06.2004 07:00 12.1 C 97 % 1008.9 hPa 0.0 l/m 0.1 km/h (0 Bft) NW 11.6 C 12.1 C
20.06.2004 08:00 12.9 C 81 % 1008.8 hPa 0.0 l/m 9.7 km/h (2 Bft) NW 9.6 C 12.9 C
20.06.2004 09:00 13.2 C 76 % 1008.9 hPa 0.0 l/m 6.9 km/h (2 Bft) NW 9.1 C 13.2 C
20.06.2004 10:00 15.3 C 64 % 1008.0 hPa 0.0 l/m 7.5 km/h (2 Bft) NW 8.4 C 15.3 C
20.06.2004 11:00 16.2 C 56 % 1007.5 hPa 0.0 l/m 9.2 km/h (2 Bft) NW 7.3 C 16.2 C
20.06.2004 12:00 17.1 C 51 % 1007.4 hPa 0.0 l/m 12.7 km/h (3 Bft) NW 6.8 C 17.1 C
20.06.2004 13:00 18.2 C 41 % 1007.2 hPa 0.0 l/m 13.9 km/h (3 Bft) NW 4.6 C 18.2 C
20.06.2004 14:00 19.5 C 34 % 1007.0 hPa 0.0 l/m 14.2 km/h (3 Bft) NW 3.3 C 19.5 C
20.06.2004 15:00 20.5 C 30 % 1006.9 hPa 0.0 l/m 15.2 km/h (3 Bft) NW 2.4 C 20.5 C
20.06.2004 16:00 21.8 C 28 % 1006.7 hPa 0.0 l/m 7.8 km/h (2 Bft) NW 2.6 C 21.8 C
20.06.2004 17:00 21.3 C 30 % 1006.8 hPa 0.0 l/m 8.0 km/h (2 Bft) NW 3.2 C 21.3 C
20.06.2004 18:00 20.6 C 33 % 1006.9 hPa 0.0 l/m 12.0 km/h (2 Bft) NW 3.7 C 20.6 C
20.06.2004 19:00 17.6 C 43 % 1007.6 hPa 0.0 l/m 20.2 km/h (4 Bft) NW 4.7 C 17.6 C
20.06.2004 20:00 15.8 C 48 % 1008.6 hPa 0.0 l/m 17.3 km/h (3 Bft) NW 4.7 C 15.8 C
20.06.2004 21:00 15.0 C 58 % 1009.7 hPa 0.0 l/m 1.4 km/h (1 Bft) NW 6.8 C 15.0 C
20.06.2004 22:00 14.1 C 70 % 1010.8 hPa 0.0 l/m 0.1 km/h (0 Bft) N 8.7 C 14.1 C
20.06.2004 23:00 13.7 C 72 % 1010.9 hPa 0.0 l/m 0.1 km/h (0 Bft) N 8.7 C 13.7 C
Min-Datum _ 17.06.04 20.06.04 19.06.04 - 14.06.04 - 20.06.04 17.06.04
_ Min-Zeit 05:47 16:08 13:14 - 00:02 - 16:08 05:47
Minimum _ 8.0 C 25 % 1005.8 hPa - 0.0 km/h (0 Bft) - 0.5 C 8.0 C
Max-Datum _ 17.06.04 14.06.04 14.06.04 16.06.04 18.06.04 - 16.06.04 17.06.04
_ Max-Zeit 17:08 00:02 01:53 09:00 14:23 - 14:35 17:08
Maximum _ 26.4 C 100 % 1028.9 hPa 2.8 l/m 64.3 km/h
W-NW (8 Bft)
- 16.5 C 26.4 C
Durchschnitt _ 16.4 C 71 % 1014.9 hPa #8.1 l/m 6.6 km/h (2 Bft) NW 10.2 C 16.4 C

Durchschnitt Minimum Temp.15.6 C
Durchschnitt Maximum Temp.17.2 C
© Kaiko 2004